sensor_id;sensor_type;location;lat;lon;timestamp;P1;durP1;ratioP1;P2;durP2;ratioP2
70213;SDS011;60138;55.808;37.078;2023-04-03T00:00:50;19.73;;;13.82;;
70213;SDS011;60138;55.808;37.078;2023-04-03T00:03:16;18.88;;;13.07;;
70213;SDS011;60138;55.808;37.078;2023-04-03T00:05:42;17.10;;;12.68;;
70213;SDS011;60138;55.808;37.078;2023-04-03T00:08:08;21.70;;;13.73;;
70213;SDS011;60138;55.808;37.078;2023-04-03T00:10:35;17.88;;;12.38;;
70213;SDS011;60138;55.808;37.078;2023-04-03T00:13:02;19.90;;;14.55;;
70213;SDS011;60138;55.808;37.078;2023-04-03T00:15:28;18.88;;;13.80;;
70213;SDS011;60138;55.808;37.078;2023-04-03T00:17:54;21.77;;;14.90;;
70213;SDS011;60138;55.808;37.078;2023-04-03T00:20:20;22.63;;;14.90;;
70213;SDS011;60138;55.808;37.078;2023-04-03T00:22:45;23.93;;;14.17;;
70213;SDS011;60138;55.808;37.078;2023-04-03T00:25:11;19.75;;;13.75;;
70213;SDS011;60138;55.808;37.078;2023-04-03T00:27:38;22.83;;;14.10;;
70213;SDS011;60138;55.808;37.078;2023-04-03T00:30:06;20.58;;;14.27;;
70213;SDS011;60138;55.808;37.078;2023-04-03T00:32:33;22.05;;;13.82;;
70213;SDS011;60138;55.808;37.078;2023-04-03T00:34:59;18.02;;;12.50;;
70213;SDS011;60138;55.808;37.078;2023-04-03T00:37:25;20.53;;;13.50;;
70213;SDS011;60138;55.808;37.078;2023-04-03T00:39:50;20.95;;;13.63;;
70213;SDS011;60138;55.808;37.078;2023-04-03T00:42:16;20.87;;;14.03;;
70213;SDS011;60138;55.808;37.078;2023-04-03T00:47:08;20.35;;;14.75;;
70213;SDS011;60138;55.808;37.078;2023-04-03T00:49:40;19.20;;;12.47;;
70213;SDS011;60138;55.808;37.078;2023-04-03T00:52:08;21.42;;;12.77;;
70213;SDS011;60138;55.808;37.078;2023-04-03T00:54:39;20.08;;;13.02;;
70213;SDS011;60138;55.808;37.078;2023-04-03T00:57:06;22.20;;;13.32;;
70213;SDS011;60138;55.808;37.078;2023-04-03T00:59:34;18.35;;;12.25;;
70213;SDS011;60138;55.808;37.078;2023-04-03T01:02:05;17.53;;;11.73;;
70213;SDS011;60138;55.808;37.078;2023-04-03T01:07:08;21.25;;;13.32;;
70213;SDS011;60138;55.808;37.078;2023-04-03T01:09:40;20.13;;;13.70;;
70213;SDS011;60138;55.808;37.078;2023-04-03T01:12:16;21.00;;;14.18;;
70213;SDS011;60138;55.808;37.078;2023-04-03T01:14:51;22.23;;;13.10;;
70213;SDS011;60138;55.808;37.078;2023-04-03T01:17:40;22.65;;;13.25;;
70213;SDS011;60138;55.808;37.078;2023-04-03T01:20:21;19.83;;;13.10;;
70213;SDS011;60138;55.808;37.078;2023-04-03T01:28:12;18.80;;;11.90;;
70213;SDS011;60138;55.808;37.078;2023-04-03T01:30:43;17.60;;;12.07;;
70213;SDS011;60138;55.808;37.078;2023-04-03T01:33:16;20.05;;;12.38;;
70213;SDS011;60138;55.808;37.078;2023-04-03T01:35:42;19.98;;;12.05;;
70213;SDS011;60138;55.808;37.078;2023-04-03T01:38:08;15.85;;;10.95;;
70213;SDS011;60138;55.808;37.078;2023-04-03T01:40:33;17.70;;;12.88;;
70213;SDS011;60138;55.808;37.078;2023-04-03T01:42:59;16.73;;;12.15;;
70213;SDS011;60138;55.808;37.078;2023-04-03T01:45:25;18.63;;;11.70;;
70213;SDS011;60138;55.808;37.078;2023-04-03T01:47:51;16.67;;;10.80;;
70213;SDS011;60138;55.808;37.078;2023-04-03T01:50:16;15.30;;;11.13;;
70213;SDS011;60138;55.808;37.078;2023-04-03T01:52:43;15.50;;;12.30;;
70213;SDS011;60138;55.808;37.078;2023-04-03T01:55:09;16.80;;;11.17;;
70213;SDS011;60138;55.808;37.078;2023-04-03T01:57:34;16.48;;;10.50;;
70213;SDS011;60138;55.808;37.078;2023-04-03T02:00:00;18.23;;;12.80;;
70213;SDS011;60138;55.808;37.078;2023-04-03T02:02:28;18.52;;;12.27;;
70213;SDS011;60138;55.808;37.078;2023-04-03T02:04:54;15.45;;;12.15;;
70213;SDS011;60138;55.808;37.078;2023-04-03T02:07:20;20.73;;;13.50;;
70213;SDS011;60138;55.808;37.078;2023-04-03T02:09:46;17.73;;;12.00;;
70213;SDS011;60138;55.808;37.078;2023-04-03T02:12:11;16.60;;;12.17;;
70213;SDS011;60138;55.808;37.078;2023-04-03T02:14:37;19.73;;;13.00;;
70213;SDS011;60138;55.808;37.078;2023-04-03T02:17:03;19.48;;;12.30;;
70213;SDS011;60138;55.808;37.078;2023-04-03T02:19:28;20.87;;;13.60;;
70213;SDS011;60138;55.808;37.078;2023-04-03T02:21:54;18.70;;;12.88;;
70213;SDS011;60138;55.808;37.078;2023-04-03T02:24:20;19.33;;;12.77;;
70213;SDS011;60138;55.808;37.078;2023-04-03T02:26:46;19.42;;;13.00;;
70213;SDS011;60138;55.808;37.078;2023-04-03T02:29:11;18.37;;;12.80;;
70213;SDS011;60138;55.808;37.078;2023-04-03T02:31:37;20.05;;;13.30;;
70213;SDS011;60138;55.808;37.078;2023-04-03T02:34:04;17.43;;;13.63;;
70213;SDS011;60138;55.808;37.078;2023-04-03T02:36:30;20.20;;;13.32;;
70213;SDS011;60138;55.808;37.078;2023-04-03T02:38:58;22.85;;;14.65;;
70213;SDS011;60138;55.808;37.078;2023-04-03T02:41:23;21.23;;;15.73;;
70213;SDS011;60138;55.808;37.078;2023-04-03T02:43:50;23.80;;;15.70;;
70213;SDS011;60138;55.808;37.078;2023-04-03T02:46:16;21.70;;;14.43;;
70213;SDS011;60138;55.808;37.078;2023-04-03T02:48:42;25.70;;;15.80;;
70213;SDS011;60138;55.808;37.078;2023-04-03T02:51:09;24.02;;;14.32;;
70213;SDS011;60138;55.808;37.078;2023-04-03T02:53:34;22.30;;;14.57;;
70213;SDS011;60138;55.808;37.078;2023-04-03T02:56:06;21.70;;;13.93;;
70213;SDS011;60138;55.808;37.078;2023-04-03T02:58:32;21.27;;;14.15;;
70213;SDS011;60138;55.808;37.078;2023-04-03T03:00:59;24.98;;;14.85;;
70213;SDS011;60138;55.808;37.078;2023-04-03T03:03:25;22.20;;;14.90;;
70213;SDS011;60138;55.808;37.078;2023-04-03T03:06:00;23.75;;;14.48;;
70213;SDS011;60138;55.808;37.078;2023-04-03T03:08:29;24.92;;;14.93;;
70213;SDS011;60138;55.808;37.078;2023-04-03T03:10:55;22.30;;;14.77;;
70213;SDS011;60138;55.808;37.078;2023-04-03T03:13:21;25.58;;;16.20;;
70213;SDS011;60138;55.808;37.078;2023-04-03T03:15:46;21.93;;;13.07;;
70213;SDS011;60138;55.808;37.078;2023-04-03T03:18:12;20.33;;;15.05;;
70213;SDS011;60138;55.808;37.078;2023-04-03T03:20:38;20.33;;;13.10;;
70213;SDS011;60138;55.808;37.078;2023-04-03T03:23:03;20.20;;;14.13;;
70213;SDS011;60138;55.808;37.078;2023-04-03T03:25:29;17.85;;;13.00;;
70213;SDS011;60138;55.808;37.078;2023-04-03T03:27:55;19.30;;;12.90;;
70213;SDS011;60138;55.808;37.078;2023-04-03T03:30:20;21.38;;;13.55;;
70213;SDS011;60138;55.808;37.078;2023-04-03T03:32:46;22.35;;;13.95;;
70213;SDS011;60138;55.808;37.078;2023-04-03T03:35:12;27.97;;;15.93;;
70213;SDS011;60138;55.808;37.078;2023-04-03T03:37:38;25.70;;;15.57;;
70213;SDS011;60138;55.808;37.078;2023-04-03T03:40:04;30.43;;;16.80;;
70213;SDS011;60138;55.808;37.078;2023-04-03T03:42:31;26.45;;;16.60;;
70213;SDS011;60138;55.808;37.078;2023-04-03T03:44:57;22.73;;;15.45;;
70213;SDS011;60138;55.808;37.078;2023-04-03T03:47:22;22.67;;;14.57;;
70213;SDS011;60138;55.808;37.078;2023-04-03T03:49:48;21.13;;;13.93;;
70213;SDS011;60138;55.808;37.078;2023-04-03T03:52:15;23.92;;;15.23;;
70213;SDS011;60138;55.808;37.078;2023-04-03T03:54:40;21.73;;;14.13;;
70213;SDS011;60138;55.808;37.078;2023-04-03T03:57:06;21.17;;;13.85;;
70213;SDS011;60138;55.808;37.078;2023-04-03T03:59:32;17.60;;;12.68;;
70213;SDS011;60138;55.808;37.078;2023-04-03T04:01:58;21.33;;;15.18;;
70213;SDS011;60138;55.808;37.078;2023-04-03T04:04:24;20.63;;;14.93;;
70213;SDS011;60138;55.808;37.078;2023-04-03T04:06:50;41.33;;;24.88;;
70213;SDS011;60138;55.808;37.078;2023-04-03T04:09:16;24.20;;;16.25;;
70213;SDS011;60138;55.808;37.078;2023-04-03T04:11:41;24.97;;;14.90;;
70213;SDS011;60138;55.808;37.078;2023-04-03T04:14:10;22.10;;;14.57;;
70213;SDS011;60138;55.808;37.078;2023-04-03T04:16:36;22.98;;;15.23;;
70213;SDS011;60138;55.808;37.078;2023-04-03T04:19:07;21.90;;;15.00;;
70213;SDS011;60138;55.808;37.078;2023-04-03T04:21:33;21.48;;;15.90;;
70213;SDS011;60138;55.808;37.078;2023-04-03T04:23:59;21.95;;;14.32;;
70213;SDS011;60138;55.808;37.078;2023-04-03T04:26:25;20.07;;;15.30;;
70213;SDS011;60138;55.808;37.078;2023-04-03T04:28:51;18.65;;;13.45;;
70213;SDS011;60138;55.808;37.078;2023-04-03T04:31:18;23.88;;;13.73;;
70213;SDS011;60138;55.808;37.078;2023-04-03T04:33:46;20.60;;;14.52;;
70213;SDS011;60138;55.808;37.078;2023-04-03T04:36:13;20.70;;;15.50;;
70213;SDS011;60138;55.808;37.078;2023-04-03T04:38:39;21.38;;;14.23;;
70213;SDS011;60138;55.808;37.078;2023-04-03T04:41:06;22.15;;;13.90;;
70213;SDS011;60138;55.808;37.078;2023-04-03T04:43:32;18.10;;;14.05;;
70213;SDS011;60138;55.808;37.078;2023-04-03T04:48:35;23.95;;;14.93;;
70213;SDS011;60138;55.808;37.078;2023-04-03T04:51:03;25.00;;;16.40;;
70213;SDS011;60138;55.808;37.078;2023-04-03T04:53:29;23.38;;;15.13;;
70213;SDS011;60138;55.808;37.078;2023-04-03T04:55:55;22.02;;;15.75;;
70213;SDS011;60138;55.808;37.078;2023-04-03T04:58:21;21.17;;;14.17;;
70213;SDS011;60138;55.808;37.078;2023-04-03T05:00:47;23.33;;;13.52;;
70213;SDS011;60138;55.808;37.078;2023-04-03T05:03:13;22.33;;;13.87;;
70213;SDS011;60138;55.808;37.078;2023-04-03T05:05:39;22.73;;;14.00;;
70213;SDS011;60138;55.808;37.078;2023-04-03T05:08:05;26.30;;;14.45;;
70213;SDS011;60138;55.808;37.078;2023-04-03T05:10:31;26.02;;;13.98;;
70213;SDS011;60138;55.808;37.078;2023-04-03T05:12:57;22.27;;;13.70;;
70213;SDS011;60138;55.808;37.078;2023-04-03T05:15:23;19.20;;;12.77;;
70213;SDS011;60138;55.808;37.078;2023-04-03T05:17:49;19.30;;;13.27;;
70213;SDS011;60138;55.808;37.078;2023-04-03T05:20:15;18.58;;;12.57;;
70213;SDS011;60138;55.808;37.078;2023-04-03T05:22:44;21.98;;;12.68;;
70213;SDS011;60138;55.808;37.078;2023-04-03T05:25:09;21.02;;;14.15;;
70213;SDS011;60138;55.808;37.078;2023-04-03T05:27:36;20.98;;;13.38;;
70213;SDS011;60138;55.808;37.078;2023-04-03T05:30:02;22.85;;;13.65;;
70213;SDS011;60138;55.808;37.078;2023-04-03T05:32:29;21.85;;;13.15;;
70213;SDS011;60138;55.808;37.078;2023-04-03T05:35:16;23.33;;;15.00;;
70213;SDS011;60138;55.808;37.078;2023-04-03T05:37:43;21.40;;;13.23;;
70213;SDS011;60138;55.808;37.078;2023-04-03T05:40:09;19.88;;;14.00;;
70213;SDS011;60138;55.808;37.078;2023-04-03T05:42:38;19.50;;;14.18;;
70213;SDS011;60138;55.808;37.078;2023-04-03T05:45:05;19.67;;;14.07;;
70213;SDS011;60138;55.808;37.078;2023-04-03T05:47:31;20.13;;;13.40;;
70213;SDS011;60138;55.808;37.078;2023-04-03T05:49:56;19.67;;;12.68;;
70213;SDS011;60138;55.808;37.078;2023-04-03T05:52:25;19.38;;;12.68;;
70213;SDS011;60138;55.808;37.078;2023-04-03T05:54:53;20.00;;;13.33;;
70213;SDS011;60138;55.808;37.078;2023-04-03T05:57:24;18.45;;;12.60;;
70213;SDS011;60138;55.808;37.078;2023-04-03T05:59:50;20.90;;;12.65;;
70213;SDS011;60138;55.808;37.078;2023-04-03T06:02:17;17.67;;;13.13;;
70213;SDS011;60138;55.808;37.078;2023-04-03T06:04:45;20.73;;;13.10;;
70213;SDS011;60138;55.808;37.078;2023-04-03T06:07:12;22.02;;;13.50;;
70213;SDS011;60138;55.808;37.078;2023-04-03T06:09:40;21.60;;;13.27;;
70213;SDS011;60138;55.808;37.078;2023-04-03T06:12:05;19.77;;;13.87;;
70213;SDS011;60138;55.808;37.078;2023-04-03T06:14:31;19.27;;;13.50;;
70213;SDS011;60138;55.808;37.078;2023-04-03T06:16:57;20.63;;;13.17;;
70213;SDS011;60138;55.808;37.078;2023-04-03T06:19:22;21.70;;;12.82;;
70213;SDS011;60138;55.808;37.078;2023-04-03T06:21:51;20.00;;;13.57;;
70213;SDS011;60138;55.808;37.078;2023-04-03T06:24:18;20.25;;;14.18;;
70213;SDS011;60138;55.808;37.078;2023-04-03T06:26:44;19.25;;;13.43;;
70213;SDS011;60138;55.808;37.078;2023-04-03T06:29:10;19.23;;;13.20;;
70213;SDS011;60138;55.808;37.078;2023-04-03T06:31:35;20.93;;;13.80;;
70213;SDS011;60138;55.808;37.078;2023-04-03T06:34:01;23.20;;;14.25;;
70213;SDS011;60138;55.808;37.078;2023-04-03T06:36:26;25.23;;;13.65;;
70213;SDS011;60138;55.808;37.078;2023-04-03T06:38:54;19.65;;;13.13;;
70213;SDS011;60138;55.808;37.078;2023-04-03T06:41:19;20.53;;;14.10;;
70213;SDS011;60138;55.808;37.078;2023-04-03T06:43:45;26.98;;;14.90;;
70213;SDS011;60138;55.808;37.078;2023-04-03T06:46:15;19.98;;;13.13;;
70213;SDS011;60138;55.808;37.078;2023-04-03T06:48:45;20.42;;;13.52;;
70213;SDS011;60138;55.808;37.078;2023-04-03T06:51:16;20.73;;;13.85;;
70213;SDS011;60138;55.808;37.078;2023-04-03T06:53:51;21.25;;;14.60;;
70213;SDS011;60138;55.808;37.078;2023-04-03T06:56:17;22.57;;;12.97;;
70213;SDS011;60138;55.808;37.078;2023-04-03T06:58:44;22.02;;;11.30;;
70213;SDS011;60138;55.808;37.078;2023-04-03T07:01:10;20.38;;;13.55;;
70213;SDS011;60138;55.808;37.078;2023-04-03T07:03:38;16.88;;;11.95;;
70213;SDS011;60138;55.808;37.078;2023-04-03T07:06:04;19.33;;;12.63;;
70213;SDS011;60138;55.808;37.078;2023-04-03T07:08:31;18.38;;;11.98;;
70213;SDS011;60138;55.808;37.078;2023-04-03T07:10:57;42.45;;;26.90;;
70213;SDS011;60138;55.808;37.078;2023-04-03T07:13:22;25.67;;;16.73;;
70213;SDS011;60138;55.808;37.078;2023-04-03T07:15:48;21.17;;;12.88;;
70213;SDS011;60138;55.808;37.078;2023-04-03T07:18:14;21.03;;;12.63;;
70213;SDS011;60138;55.808;37.078;2023-04-03T07:20:39;21.03;;;13.07;;
70213;SDS011;60138;55.808;37.078;2023-04-03T07:23:05;23.65;;;12.88;;
70213;SDS011;60138;55.808;37.078;2023-04-03T07:25:31;19.38;;;12.55;;
70213;SDS011;60138;55.808;37.078;2023-04-03T07:27:57;18.67;;;11.83;;
70213;SDS011;60138;55.808;37.078;2023-04-03T07:30:23;20.02;;;12.63;;
70213;SDS011;60138;55.808;37.078;2023-04-03T07:32:48;22.35;;;12.02;;
70213;SDS011;60138;55.808;37.078;2023-04-03T07:35:14;19.90;;;12.80;;
70213;SDS011;60138;55.808;37.078;2023-04-03T07:37:40;19.02;;;12.60;;
70213;SDS011;60138;55.808;37.078;2023-04-03T07:40:05;22.73;;;13.90;;
70213;SDS011;60138;55.808;37.078;2023-04-03T07:42:32;24.45;;;12.55;;
70213;SDS011;60138;55.808;37.078;2023-04-03T07:44:57;27.43;;;12.70;;
70213;SDS011;60138;55.808;37.078;2023-04-03T07:47:23;23.17;;;12.30;;
70213;SDS011;60138;55.808;37.078;2023-04-03T07:49:49;23.20;;;12.73;;
70213;SDS011;60138;55.808;37.078;2023-04-03T07:52:14;21.57;;;12.90;;
70213;SDS011;60138;55.808;37.078;2023-04-03T07:54:40;24.30;;;14.00;;
70213;SDS011;60138;55.808;37.078;2023-04-03T07:57:06;20.98;;;12.77;;
70213;SDS011;60138;55.808;37.078;2023-04-03T07:59:32;20.33;;;13.23;;
70213;SDS011;60138;55.808;37.078;2023-04-03T08:01:57;19.35;;;12.30;;
70213;SDS011;60138;55.808;37.078;2023-04-03T08:04:23;19.37;;;12.23;;
70213;SDS011;60138;55.808;37.078;2023-04-03T08:06:49;24.98;;;12.07;;
70213;SDS011;60138;55.808;37.078;2023-04-03T08:09:15;20.50;;;11.57;;
70213;SDS011;60138;55.808;37.078;2023-04-03T08:11:41;24.60;;;13.38;;
70213;SDS011;60138;55.808;37.078;2023-04-03T08:14:06;21.27;;;13.60;;
70213;SDS011;60138;55.808;37.078;2023-04-03T08:16:32;19.83;;;13.73;;
70213;SDS011;60138;55.808;37.078;2023-04-03T08:18:58;23.17;;;13.73;;
70213;SDS011;60138;55.808;37.078;2023-04-03T08:21:24;26.27;;;12.83;;
70213;SDS011;60138;55.808;37.078;2023-04-03T08:23:49;21.73;;;14.83;;
70213;SDS011;60138;55.808;37.078;2023-04-03T08:26:16;20.15;;;13.15;;
70213;SDS011;60138;55.808;37.078;2023-04-03T08:28:44;20.63;;;13.23;;
70213;SDS011;60138;55.808;37.078;2023-04-03T08:31:11;26.67;;;14.23;;
70213;SDS011;60138;55.808;37.078;2023-04-03T08:33:38;25.65;;;13.40;;
70213;SDS011;60138;55.808;37.078;2023-04-03T08:36:05;30.52;;;12.90;;
70213;SDS011;60138;55.808;37.078;2023-04-03T08:38:32;24.08;;;13.13;;
70213;SDS011;60138;55.808;37.078;2023-04-03T08:44:02;22.10;;;13.00;;
70213;SDS011;60138;55.808;37.078;2023-04-03T08:47:34;19.67;;;12.18;;
70213;SDS011;60138;55.808;37.078;2023-04-03T08:49:48;26.50;;;13.18;;
70213;SDS011;60138;55.808;37.078;2023-04-03T08:52:18;25.23;;;12.20;;
70213;SDS011;60138;55.808;37.078;2023-04-03T08:54:55;21.55;;;12.77;;
70213;SDS011;60138;55.808;37.078;2023-04-03T08:57:30;22.83;;;11.90;;
70213;SDS011;60138;55.808;37.078;2023-04-03T09:00:00;33.72;;;11.93;;
70213;SDS011;60138;55.808;37.078;2023-04-03T09:02:41;21.75;;;13.48;;
70213;SDS011;60138;55.808;37.078;2023-04-03T09:05:18;29.73;;;12.27;;
70213;SDS011;60138;55.808;37.078;2023-04-03T09:08:07;27.45;;;12.82;;
70213;SDS011;60138;55.808;37.078;2023-04-03T09:10:37;19.77;;;11.40;;
70213;SDS011;60138;55.808;37.078;2023-04-03T09:13:06;24.13;;;12.18;;
70213;SDS011;60138;55.808;37.078;2023-04-03T09:15:53;20.23;;;12.45;;
70213;SDS011;60138;55.808;37.078;2023-04-03T09:18:23;19.52;;;12.18;;
70213;SDS011;60138;55.808;37.078;2023-04-03T09:26:25;22.60;;;12.27;;
70213;SDS011;60138;55.808;37.078;2023-04-03T09:29:00;22.42;;;12.52;;
70213;SDS011;60138;55.808;37.078;2023-04-03T09:31:32;30.48;;;12.95;;
70213;SDS011;60138;55.808;37.078;2023-04-03T09:34:05;23.23;;;13.05;;
70213;SDS011;60138;55.808;37.078;2023-04-03T09:39:12;22.48;;;11.90;;
70213;SDS011;60138;55.808;37.078;2023-04-03T09:41:40;22.02;;;12.07;;
70213;SDS011;60138;55.808;37.078;2023-04-03T09:44:23;21.83;;;12.02;;
70213;SDS011;60138;55.808;37.078;2023-04-03T09:46:54;23.10;;;12.90;;
70213;SDS011;60138;55.808;37.078;2023-04-03T09:49:20;19.67;;;11.40;;
70213;SDS011;60138;55.808;37.078;2023-04-03T09:51:46;17.08;;;10.45;;
70213;SDS011;60138;55.808;37.078;2023-04-03T09:54:25;27.70;;;12.47;;
70213;SDS011;60138;55.808;37.078;2023-04-03T09:56:51;21.38;;;11.10;;
70213;SDS011;60138;55.808;37.078;2023-04-03T09:59:19;29.05;;;13.63;;
70213;SDS011;60138;55.808;37.078;2023-04-03T10:01:58;25.10;;;11.93;;
70213;SDS011;60138;55.808;37.078;2023-04-03T10:04:41;21.50;;;11.85;;
70213;SDS011;60138;55.808;37.078;2023-04-03T10:09:57;24.40;;;13.57;;
70213;SDS011;60138;55.808;37.078;2023-04-03T10:12:24;21.98;;;12.25;;
70213;SDS011;60138;55.808;37.078;2023-04-03T10:20:09;23.07;;;11.17;;
70213;SDS011;60138;55.808;37.078;2023-04-03T10:28:51;25.13;;;12.07;;
70213;SDS011;60138;55.808;37.078;2023-04-03T10:31:14;30.17;;;12.25;;
70213;SDS011;60138;55.808;37.078;2023-04-03T10:36:43;24.20;;;10.38;;
70213;SDS011;60138;55.808;37.078;2023-04-03T10:47:43;21.03;;;9.87;;
70213;SDS011;60138;55.808;37.078;2023-04-03T10:55:53;25.83;;;10.23;;
70213;SDS011;60138;55.808;37.078;2023-04-03T10:58:50;24.60;;;11.20;;
70213;SDS011;60138;55.808;37.078;2023-04-03T11:01:23;25.37;;;10.03;;
70213;SDS011;60138;55.808;37.078;2023-04-03T11:03:54;21.33;;;9.88;;
70213;SDS011;60138;55.808;37.078;2023-04-03T11:06:25;23.17;;;9.63;;
70213;SDS011;60138;55.808;37.078;2023-04-03T11:09:02;18.95;;;10.15;;
70213;SDS011;60138;55.808;37.078;2023-04-03T11:11:31;23.20;;;9.68;;
70213;SDS011;60138;55.808;37.078;2023-04-03T11:16:31;18.70;;;9.57;;
70213;SDS011;60138;55.808;37.078;2023-04-03T11:19:03;33.08;;;10.35;;
70213;SDS011;60138;55.808;37.078;2023-04-03T11:21:45;31.40;;;10.70;;
70213;SDS011;60138;55.808;37.078;2023-04-03T11:24:26;21.52;;;10.73;;
70213;SDS011;60138;55.808;37.078;2023-04-03T11:26:55;21.80;;;8.37;;
70213;SDS011;60138;55.808;37.078;2023-04-03T11:29:23;19.15;;;9.18;;
70213;SDS011;60138;55.808;37.078;2023-04-03T11:34:26;19.60;;;9.60;;
70213;SDS011;60138;55.808;37.078;2023-04-03T11:37:25;19.10;;;10.32;;
70213;SDS011;60138;55.808;37.078;2023-04-03T11:40:19;21.02;;;8.88;;
70213;SDS011;60138;55.808;37.078;2023-04-03T11:42:52;21.65;;;9.98;;
70213;SDS011;60138;55.808;37.078;2023-04-03T11:50:52;16.45;;;8.75;;
70213;SDS011;60138;55.808;37.078;2023-04-03T11:55:42;18.70;;;9.05;;
70213;SDS011;60138;55.808;37.078;2023-04-03T11:58:13;17.65;;;8.43;;
70213;SDS011;60138;55.808;37.078;2023-04-03T12:08:44;17.00;;;9.30;;
70213;SDS011;60138;55.808;37.078;2023-04-03T12:14:23;18.30;;;9.90;;
70213;SDS011;60138;55.808;37.078;2023-04-03T12:16:30;18.10;;;8.70;;
70213;SDS011;60138;55.808;37.078;2023-04-03T12:19:03;20.20;;;8.63;;
70213;SDS011;60138;55.808;37.078;2023-04-03T12:26:46;18.42;;;9.82;;
70213;SDS011;60138;55.808;37.078;2023-04-03T12:35:02;18.53;;;9.00;;
70213;SDS011;60138;55.808;37.078;2023-04-03T12:45:43;25.02;;;10.68;;
70213;SDS011;60138;55.808;37.078;2023-04-03T12:48:15;23.80;;;10.17;;
70213;SDS011;60138;55.808;37.078;2023-04-03T12:50:43;21.42;;;9.95;;
70213;SDS011;60138;55.808;37.078;2023-04-03T12:53:22;22.63;;;9.57;;
70213;SDS011;60138;55.808;37.078;2023-04-03T12:55:54;19.00;;;10.80;;
70213;SDS011;60138;55.808;37.078;2023-04-03T12:58:22;21.60;;;10.30;;
70213;SDS011;60138;55.808;37.078;2023-04-03T13:00:59;20.17;;;9.30;;
70213;SDS011;60138;55.808;37.078;2023-04-03T13:03:27;22.10;;;9.55;;
70213;SDS011;60138;55.808;37.078;2023-04-03T13:05:58;19.77;;;9.50;;
70213;SDS011;60138;55.808;37.078;2023-04-03T13:08:28;19.15;;;9.27;;
70213;SDS011;60138;55.808;37.078;2023-04-03T13:10:55;21.80;;;8.80;;
70213;SDS011;60138;55.808;37.078;2023-04-03T13:13:37;23.10;;;9.50;;
70213;SDS011;60138;55.808;37.078;2023-04-03T13:16:10;17.35;;;9.55;;
70213;SDS011;60138;55.808;37.078;2023-04-03T13:18:37;20.98;;;8.80;;
70213;SDS011;60138;55.808;37.078;2023-04-03T13:21:07;23.90;;;8.98;;
70213;SDS011;60138;55.808;37.078;2023-04-03T13:23:40;19.67;;;8.77;;
70213;SDS011;60138;55.808;37.078;2023-04-03T13:26:08;20.38;;;8.60;;
70213;SDS011;60138;55.808;37.078;2023-04-03T13:28:34;25.13;;;9.85;;
70213;SDS011;60138;55.808;37.078;2023-04-03T13:33:34;22.55;;;10.10;;
70213;SDS011;60138;55.808;37.078;2023-04-03T13:36:05;20.80;;;10.33;;
70213;SDS011;60138;55.808;37.078;2023-04-03T13:38:34;20.10;;;8.07;;
70213;SDS011;60138;55.808;37.078;2023-04-03T13:41:01;22.67;;;9.15;;
70213;SDS011;60138;55.808;37.078;2023-04-03T13:43:47;16.85;;;9.45;;
70213;SDS011;60138;55.808;37.078;2023-04-03T13:48:39;18.80;;;8.80;;
70213;SDS011;60138;55.808;37.078;2023-04-03T13:54:15;18.67;;;8.30;;
70213;SDS011;60138;55.808;37.078;2023-04-03T13:56:43;19.70;;;8.82;;
70213;SDS011;60138;55.808;37.078;2023-04-03T14:01:43;15.07;;;8.93;;
70213;SDS011;60138;55.808;37.078;2023-04-03T14:04:24;16.58;;;9.02;;
70213;SDS011;60138;55.808;37.078;2023-04-03T14:06:52;15.70;;;9.00;;
70213;SDS011;60138;55.808;37.078;2023-04-03T14:09:19;17.75;;;10.20;;
70213;SDS011;60138;55.808;37.078;2023-04-03T14:11:47;22.07;;;9.30;;
70213;SDS011;60138;55.808;37.078;2023-04-03T14:14:16;17.17;;;9.48;;
70213;SDS011;60138;55.808;37.078;2023-04-03T14:16:50;18.60;;;9.93;;
70213;SDS011;60138;55.808;37.078;2023-04-03T14:19:22;22.30;;;10.40;;
70213;SDS011;60138;55.808;37.078;2023-04-03T14:21:56;22.67;;;11.40;;
70213;SDS011;60138;55.808;37.078;2023-04-03T14:24:22;18.63;;;12.03;;
70213;SDS011;60138;55.808;37.078;2023-04-03T14:26:50;23.35;;;13.23;;
70213;SDS011;60138;55.808;37.078;2023-04-03T14:29:19;23.08;;;13.60;;
70213;SDS011;60138;55.808;37.078;2023-04-03T14:31:46;23.92;;;13.20;;
70213;SDS011;60138;55.808;37.078;2023-04-03T14:34:13;23.77;;;12.70;;
70213;SDS011;60138;55.808;37.078;2023-04-03T14:36:41;24.80;;;13.00;;
70213;SDS011;60138;55.808;37.078;2023-04-03T14:39:10;23.40;;;12.98;;
70213;SDS011;60138;55.808;37.078;2023-04-03T14:41:41;23.80;;;12.43;;
70213;SDS011;60138;55.808;37.078;2023-04-03T14:44:08;27.58;;;12.20;;
70213;SDS011;60138;55.808;37.078;2023-04-03T14:46:35;25.30;;;12.70;;
70213;SDS011;60138;55.808;37.078;2023-04-03T14:49:03;24.70;;;13.65;;
70213;SDS011;60138;55.808;37.078;2023-04-03T14:51:31;26.35;;;13.93;;
70213;SDS011;60138;55.808;37.078;2023-04-03T14:53:56;24.50;;;13.93;;
70213;SDS011;60138;55.808;37.078;2023-04-03T14:56:26;22.42;;;13.15;;
70213;SDS011;60138;55.808;37.078;2023-04-03T14:58:58;29.23;;;14.07;;
70213;SDS011;60138;55.808;37.078;2023-04-03T15:01:25;25.77;;;13.45;;
70213;SDS011;60138;55.808;37.078;2023-04-03T15:03:52;24.10;;;14.63;;
70213;SDS011;60138;55.808;37.078;2023-04-03T15:06:18;25.60;;;14.23;;
70213;SDS011;60138;55.808;37.078;2023-04-03T15:08:45;23.50;;;11.80;;
70213;SDS011;60138;55.808;37.078;2023-04-03T15:11:12;22.80;;;10.83;;
70213;SDS011;60138;55.808;37.078;2023-04-03T15:13:38;18.13;;;8.90;;
70213;SDS011;60138;55.808;37.078;2023-04-03T15:16:05;17.40;;;8.02;;
70213;SDS011;60138;55.808;37.078;2023-04-03T15:18:41;15.23;;;6.65;;
70213;SDS011;60138;55.808;37.078;2023-04-03T15:21:07;14.83;;;8.07;;
70213;SDS011;60138;55.808;37.078;2023-04-03T15:23:33;16.05;;;7.07;;
70213;SDS011;60138;55.808;37.078;2023-04-03T15:25:58;13.80;;;7.83;;
70213;SDS011;60138;55.808;37.078;2023-04-03T15:28:28;18.92;;;8.43;;
70213;SDS011;60138;55.808;37.078;2023-04-03T15:31:00;18.77;;;10.05;;
70213;SDS011;60138;55.808;37.078;2023-04-03T15:33:26;26.10;;;11.73;;
70213;SDS011;60138;55.808;37.078;2023-04-03T15:35:52;19.63;;;11.25;;
70213;SDS011;60138;55.808;37.078;2023-04-03T15:38:18;19.42;;;11.52;;
70213;SDS011;60138;55.808;37.078;2023-04-03T15:40:44;32.37;;;12.23;;
70213;SDS011;60138;55.808;37.078;2023-04-03T15:43:09;25.02;;;12.60;;
70213;SDS011;60138;55.808;37.078;2023-04-03T15:45:35;21.10;;;10.83;;
70213;SDS011;60138;55.808;37.078;2023-04-03T15:48:03;24.20;;;12.38;;
70213;SDS011;60138;55.808;37.078;2023-04-03T15:50:30;21.58;;;10.40;;
70213;SDS011;60138;55.808;37.078;2023-04-03T15:52:57;22.33;;;11.27;;
70213;SDS011;60138;55.808;37.078;2023-04-03T15:55:24;22.43;;;10.30;;
70213;SDS011;60138;55.808;37.078;2023-04-03T15:57:51;17.10;;;9.57;;
70213;SDS011;60138;55.808;37.078;2023-04-03T16:00:18;19.58;;;10.82;;
70213;SDS011;60138;55.808;37.078;2023-04-03T16:02:45;22.70;;;11.98;;
70213;SDS011;60138;55.808;37.078;2023-04-03T16:05:12;21.05;;;11.10;;
70213;SDS011;60138;55.808;37.078;2023-04-03T16:07:38;18.67;;;11.03;;